Eprise, Alabama
Current Conditions -  °F | °C
As of 2:55 PM on Tuesday 21 Oct 2014 (Local Time) from KEDN Reporting Station
Clear Clear  
Wind Chill: 77°   Ceiling: Unl
Heat Index: 78°   Visibility: 10mi
Dew Point: 50°   Wind: 5mph
Humidity: 39%   Direction: 320°NW
Pressure: 29.96"   Gusts: NA
Location:  31.3153°N, 85.8554°W
Report Text: KEDN 211955Z AUTO 32004KT 10SM CLR 25/10 A2996 RMK AO2
Loading
Personal Weather Stations






























Interactive Weather Map
Tropical Storm Tracking
New forecast layout! Learn more

10-Day Weather Forecast

Advertisements
Track Severe Weather on mobile